createdAt,value
2019-02-07T00:00:28.043Z,80.70
2019-02-07T00:01:25.879Z,80.77
2019-02-07T00:02:01.554Z,75.83
2019-02-07T00:02:37.225Z,79.50
2019-02-07T00:03:12.972Z,76.30
2019-02-07T00:03:48.481Z,76.28
2019-02-07T00:04:24.223Z,76.22
2019-02-07T00:04:59.950Z,83.70
2019-02-07T00:05:35.704Z,77.80
2019-02-07T00:06:11.360Z,78.80
2019-02-07T00:06:46.863Z,73.05
2019-02-07T00:07:22.483Z,69.90
2019-02-07T00:07:58.032Z,73.50
2019-02-07T00:08:33.671Z,73.05
2019-02-07T00:09:11.123Z,73.02
2019-02-07T00:09:46.642Z,71.25
2019-02-07T00:10:22.321Z,69.87
2019-02-07T00:10:58.188Z,70.28
2019-02-07T00:11:33.780Z,70.30
2019-02-07T00:12:10.222Z,66.60
2019-02-07T00:12:45.783Z,65.32
2019-02-07T00:13:21.811Z,66.35
2019-02-07T00:13:57.352Z,65.00
2019-02-07T00:14:39.458Z,63.52
2019-02-07T00:15:10.923Z,61.77
2019-02-07T00:15:46.403Z,66.57
2019-02-07T00:16:22.011Z,62.33
2019-02-07T00:16:58.186Z,62.40
2019-02-07T00:17:33.771Z,61.63
2019-02-07T00:18:09.943Z,60.65
2019-02-07T00:18:45.491Z,59.03
2019-02-07T00:19:21.221Z,60.00
2019-02-07T00:19:56.783Z,56.23
2019-02-07T00:20:32.481Z,52.50
2019-02-07T00:21:07.959Z,55.10
2019-02-07T00:21:43.659Z,53.65
2019-02-07T00:22:19.410Z,54.55
2019-02-07T00:22:55.041Z,53.23
2019-02-07T00:23:30.953Z,53.58
2019-02-07T00:24:06.651Z,54.48
2019-02-07T00:24:43.128Z,52.20
2019-02-07T00:25:19.051Z,56.58
2019-02-07T00:25:54.751Z,54.80
2019-02-07T00:26:30.296Z,53.90
2019-02-07T00:27:06.228Z,54.53
2019-02-07T00:27:41.837Z,55.70
2019-02-07T00:28:17.948Z,53.38
2019-02-07T00:28:53.649Z,52.85
2019-02-07T00:29:29.660Z,53.40
2019-02-07T00:30:06.162Z,49.90
2019-02-07T00:30:41.781Z,47.13
2019-02-07T00:31:17.302Z,48.58
2019-02-07T00:31:52.960Z,48.13
2019-02-07T00:32:28.531Z,48.52
2019-02-07T00:33:04.300Z,48.75
2019-02-07T00:33:41.348Z,49.35
2019-02-07T00:34:17.091Z,51.50
2019-02-07T00:34:52.710Z,48.20
2019-02-07T00:35:28.279Z,51.63
2019-02-07T00:36:03.998Z,50.03
2019-02-07T00:36:39.571Z,49.90
2019-02-07T00:37:15.491Z,48.98
2019-02-07T00:37:50.979Z,46.02
2019-02-07T00:38:26.739Z,50.10
2019-02-07T00:39:02.218Z,51.00
2019-02-07T00:39:37.872Z,51.95
2019-02-07T00:40:15.130Z,51.75
2019-02-07T00:40:51.268Z,52.75
2019-02-07T00:41:26.950Z,56.33
2019-02-07T00:42:03.309Z,53.63
2019-02-07T00:42:38.930Z,53.10
2019-02-07T00:43:14.430Z,51.53
2019-02-07T00:43:49.970Z,52.38
2019-02-07T00:44:25.731Z,50.70
2019-02-07T00:45:01.419Z,52.05
2019-02-07T00:45:36.981Z,50.58
2019-02-07T00:46:12.511Z,53.98
2019-02-07T00:46:48.169Z,53.05
2019-02-07T00:47:23.639Z,55.52
2019-02-07T00:47:59.230Z,53.80
2019-02-07T00:48:35.219Z,58.87
2019-02-07T00:49:10.796Z,53.15
2019-02-07T00:49:46.469Z,53.52
2019-02-07T00:50:22.187Z,56.15
2019-02-07T00:50:57.788Z,50.48
2019-02-07T00:51:33.447Z,48.98
2019-02-07T00:52:09.164Z,49.67
2019-02-07T00:52:45.200Z,51.18
2019-02-07T00:53:20.757Z,51.50
2019-02-07T00:53:56.389Z,51.75
2019-02-07T00:54:32.009Z,54.50
2019-02-07T00:55:09.422Z,58.28
2019-02-07T00:55:44.958Z,55.28
2019-02-07T00:56:20.445Z,59.20
2019-02-07T00:56:56.316Z,60.28
2019-02-07T00:57:31.825Z,55.90
2019-02-07T00:58:07.977Z,55.50
2019-02-07T00:58:43.464Z,55.67
2019-02-07T00:59:19.036Z,58.23
2019-02-07T00:59:54.587Z,53.73
2019-02-07T01:00:30.185Z,53.33
2019-02-07T01:01:06.449Z,58.92
2019-02-07T01:01:42.083Z,59.65
2019-02-07T01:02:17.615Z,57.70
2019-02-07T01:02:53.516Z,60.10
2019-02-07T01:03:29.183Z,65.17
2019-02-07T01:04:04.997Z,60.15
2019-02-07T01:04:40.555Z,61.88
2019-02-07T01:05:17.085Z,58.90
2019-02-07T01:05:52.793Z,57.62
2019-02-07T01:06:28.616Z,54.40
2019-02-07T01:07:04.745Z,56.50
2019-02-07T01:07:40.485Z,57.58
2019-02-07T01:08:16.274Z,55.58
2019-02-07T01:08:52.781Z,55.85
2019-02-07T01:09:29.338Z,57.90
2019-02-07T01:10:06.365Z,52.95
2019-02-07T01:10:42.374Z,56.42
2019-02-07T01:11:17.982Z,54.25
2019-02-07T01:11:53.913Z,52.78
2019-02-07T01:12:29.674Z,54.25
2019-02-07T01:13:05.325Z,54.03
2019-02-07T01:13:40.854Z,57.10
2019-02-07T01:14:16.505Z,57.23
2019-02-07T01:15:01.662Z,51.50
2019-02-07T01:15:29.615Z,53.02
2019-02-07T01:16:05.492Z,54.25
2019-02-07T01:16:40.954Z,58.00
2019-02-07T01:17:16.374Z,55.75
2019-02-07T01:17:51.816Z,57.50
2019-02-07T01:18:27.358Z,56.02
2019-02-07T01:19:02.958Z,58.98
2019-02-07T01:19:39.215Z,55.12
2019-02-07T01:20:15.904Z,59.65
2019-02-07T01:20:51.711Z,56.50
2019-02-07T01:21:27.155Z,55.10
2019-02-07T01:22:02.704Z,54.53
2019-02-07T01:22:38.321Z,53.28
2019-02-07T01:23:13.982Z,54.30
2019-02-07T01:23:49.695Z,55.48
2019-02-07T01:24:25.232Z,55.85
2019-02-07T01:25:00.895Z,55.05
2019-02-07T01:25:37.223Z,57.10
2019-02-07T01:26:12.815Z,52.78
2019-02-07T01:26:48.595Z,52.90
2019-02-07T01:27:24.034Z,54.55
2019-02-07T01:27:59.954Z,54.20
2019-02-07T01:28:35.394Z,53.13
2019-02-07T01:29:11.535Z,55.80
2019-02-07T01:29:46.996Z,58.50
2019-02-07T01:30:23.453Z,56.90
2019-02-07T01:31:00.195Z,55.30
2019-02-07T01:31:35.772Z,62.05
2019-02-07T01:32:11.395Z,58.98
2019-02-07T01:32:47.234Z,57.40
2019-02-07T01:33:22.743Z,59.15
2019-02-07T01:33:58.391Z,59.58
2019-02-07T01:34:34.016Z,56.50
2019-02-07T01:35:10.257Z,57.17
2019-02-07T01:35:45.852Z,58.80
2019-02-07T01:36:21.417Z,58.73
2019-02-07T01:36:57.034Z,56.02
2019-02-07T01:37:32.722Z,55.40
2019-02-07T01:38:08.366Z,55.40
2019-02-07T01:38:44.073Z,54.55
2019-02-07T01:39:19.728Z,53.17
2019-02-07T01:39:55.577Z,53.95
2019-02-07T01:40:31.109Z,54.88
2019-02-07T01:41:06.820Z,54.88
2019-02-07T01:41:42.700Z,54.45
2019-02-07T01:42:18.288Z,53.60
2019-02-07T01:42:55.880Z,53.85
2019-02-07T01:43:31.491Z,54.60
2019-02-07T01:44:07.060Z,51.40
2019-02-07T01:44:42.700Z,54.05
2019-02-07T01:45:21.649Z,48.33
2019-02-07T01:45:57.311Z,51.15
2019-02-07T01:46:32.801Z,49.85
2019-02-07T01:47:08.406Z,47.93
2019-02-07T01:47:44.056Z,51.25
2019-02-07T01:48:19.580Z,48.17
2019-02-07T01:48:55.290Z,50.73
2019-02-07T01:49:30.861Z,50.83
2019-02-07T01:50:07.560Z,48.63
2019-02-07T01:50:43.228Z,48.75
2019-02-07T01:51:19.418Z,48.25
2019-02-07T01:51:55.110Z,51.25
2019-02-07T01:52:30.930Z,53.20
2019-02-07T01:53:06.613Z,48.95
2019-02-07T01:53:42.140Z,50.23
2019-02-07T01:54:17.641Z,53.17
2019-02-07T01:54:53.208Z,50.58
2019-02-07T01:55:28.839Z,49.18
2019-02-07T01:56:04.892Z,50.80
2019-02-07T01:56:40.847Z,49.53
2019-02-07T01:57:16.532Z,48.15
2019-02-07T01:57:52.661Z,49.00
2019-02-07T01:58:28.332Z,49.60
2019-02-07T01:59:03.907Z,50.00
2019-02-07T01:59:39.454Z,52.95
2019-02-07T02:00:17.128Z,49.42
2019-02-07T02:00:52.805Z,53.68
2019-02-07T02:01:28.348Z,53.20
2019-02-07T02:02:03.819Z,56.13
2019-02-07T02:02:39.362Z,55.67
2019-02-07T02:03:15.042Z,50.55
2019-02-07T02:03:50.794Z,54.63
2019-02-07T02:04:26.452Z,50.20
2019-02-07T02:05:02.375Z,51.50
2019-02-07T02:05:38.442Z,50.35
2019-02-07T02:06:14.344Z,52.60
2019-02-07T02:06:49.998Z,51.85
2019-02-07T02:07:25.560Z,57.65
2019-02-07T02:08:01.300Z,53.00
2019-02-07T02:08:37.239Z,53.70
2019-02-07T02:09:13.066Z,53.87
2019-02-07T02:09:48.804Z,55.92
2019-02-07T02:10:26.304Z,56.95
2019-02-07T02:11:01.977Z,52.60
2019-02-07T02:11:37.875Z,51.92
2019-02-07T02:12:13.505Z,53.75
2019-02-07T02:12:49.610Z,53.13
2019-02-07T02:13:25.354Z,56.00
2019-02-07T02:14:01.202Z,52.17
2019-02-07T02:14:36.843Z,52.20
2019-02-07T02:15:23.741Z,54.77
2019-02-07T02:15:50.587Z,54.13
2019-02-07T02:16:26.245Z,53.23
2019-02-07T02:17:01.863Z,53.98
2019-02-07T02:17:37.371Z,51.18
2019-02-07T02:18:12.882Z,53.17
2019-02-07T02:18:48.333Z,54.77
2019-02-07T02:19:23.975Z,56.90
2019-02-07T02:19:59.714Z,53.00
2019-02-07T02:20:35.571Z,50.90
2019-02-07T02:21:11.200Z,51.25
2019-02-07T02:21:46.797Z,53.25
2019-02-07T02:22:22.574Z,52.38
2019-02-07T02:22:58.400Z,55.20
2019-02-07T02:23:33.989Z,55.80
2019-02-07T02:24:09.665Z,55.33
2019-02-07T02:24:45.533Z,55.12
2019-02-07T02:25:21.980Z,52.85
2019-02-07T02:25:57.852Z,56.37
2019-02-07T02:26:34.008Z,56.37
2019-02-07T02:27:09.581Z,53.48
2019-02-07T02:27:45.410Z,55.38
2019-02-07T02:28:21.081Z,53.92
2019-02-07T02:28:56.832Z,52.73
2019-02-07T02:29:32.439Z,53.40
2019-02-07T02:30:13.446Z,53.92
2019-02-07T02:30:49.146Z,54.93
2019-02-07T02:31:25.277Z,54.75
2019-02-07T02:32:01.125Z,54.15
2019-02-07T02:32:36.971Z,55.67
2019-02-07T02:33:12.800Z,54.13
2019-02-07T02:33:48.530Z,53.20
2019-02-07T02:34:24.107Z,55.23
2019-02-07T02:34:59.700Z,55.78
2019-02-07T02:35:35.433Z,52.85
2019-02-07T02:36:11.050Z,56.95
2019-02-07T02:36:46.725Z,60.17
2019-02-07T02:37:22.470Z,56.42
2019-02-07T02:37:58.141Z,58.58
2019-02-07T02:38:33.721Z,58.50
2019-02-07T02:39:10.982Z,61.00
2019-02-07T02:39:46.719Z,59.65
2019-02-07T02:40:22.710Z,56.25
2019-02-07T02:40:58.632Z,59.23
2019-02-07T02:41:34.388Z,57.25
2019-02-07T02:42:10.121Z,52.70
2019-02-07T02:42:45.957Z,50.90
2019-02-07T02:43:21.584Z,53.75
2019-02-07T02:43:57.213Z,59.10
2019-02-07T02:44:32.937Z,55.25
2019-02-07T02:45:09.785Z,58.33
2019-02-07T02:45:45.647Z,60.45
2019-02-07T02:46:21.311Z,56.92
2019-02-07T02:46:56.934Z,57.88
2019-02-07T02:47:32.566Z,56.53
2019-02-07T02:48:08.478Z,57.35
2019-02-07T02:48:44.067Z,58.50
2019-02-07T02:49:19.535Z,57.62
2019-02-07T02:49:55.176Z,70.28
2019-02-07T02:50:30.727Z,67.75
2019-02-07T02:51:06.593Z,59.10
2019-02-07T02:51:42.198Z,66.17
2019-02-07T02:52:17.738Z,64.95
2019-02-07T02:52:53.599Z,57.25
2019-02-07T02:53:29.346Z,55.08
2019-02-07T02:54:05.367Z,55.80
2019-02-07T02:54:50.665Z,57.75
2019-02-07T02:55:34.673Z,57.25
2019-02-07T02:56:10.559Z,59.60
2019-02-07T02:56:46.248Z,60.65
2019-02-07T02:57:21.999Z,59.00
2019-02-07T02:57:57.631Z,61.90
2019-02-07T02:58:33.134Z,63.40
2019-02-07T02:59:08.966Z,61.73
2019-02-07T02:59:44.503Z,59.48
2019-02-07T03:00:22.931Z,67.42
2019-02-07T03:01:23.444Z,65.30
2019-02-07T03:02:07.667Z,59.85
2019-02-07T03:03:05.236Z,58.68
2019-02-07T03:03:56.567Z,58.58
2019-02-07T03:04:50.917Z,60.17
2019-02-07T03:05:44.167Z,55.35
2019-02-07T03:06:37.514Z,57.27
2019-02-07T03:07:34.754Z,56.50
2019-02-07T03:08:35.171Z,58.52
2019-02-07T03:09:16.788Z,53.52
2019-02-07T03:10:09.993Z,55.55
2019-02-07T03:11:10.736Z,60.08
2019-02-07T03:12:20.248Z,58.68
2019-02-07T03:13:20.969Z,53.65
2019-02-07T03:14:09.308Z,55.85
2019-02-07T03:15:13.505Z,60.10
2019-02-07T03:16:26.439Z,54.63
2019-02-07T03:17:18.477Z,52.73
2019-02-07T03:18:22.031Z,51.02
2019-02-07T03:19:16.504Z,47.70
2019-02-07T03:20:07.527Z,51.95
2019-02-07T03:21:01.974Z,52.90
2019-02-07T03:22:02.284Z,51.18
2019-02-07T03:22:56.772Z,50.50
2019-02-07T03:24:03.423Z,53.38
2019-02-07T03:25:04.148Z,49.58
2019-02-07T03:25:53.953Z,47.78
2019-02-07T03:26:51.308Z,50.95
2019-02-07T03:27:42.670Z,49.25
2019-02-07T03:28:37.070Z,48.80
2019-02-07T03:29:43.498Z,54.23
2019-02-07T03:30:53.131Z,55.52
2019-02-07T03:31:46.279Z,68.60
2019-02-07T03:32:39.449Z,62.67
2019-02-07T03:33:40.048Z,51.55
2019-02-07T03:34:32.883Z,53.65
2019-02-07T03:35:36.697Z,56.60
2019-02-07T03:36:34.237Z,82.02
2019-02-07T03:37:27.469Z,69.00
2019-02-07T03:38:13.185Z,59.58
2019-02-07T03:39:19.606Z,68.95
2019-02-07T03:40:12.658Z,72.72
2019-02-07T03:41:03.741Z,67.17
2019-02-07T03:41:58.529Z,70.08
2019-02-07T03:43:02.219Z,67.70
2019-02-07T03:43:55.469Z,52.67
2019-02-07T03:44:50.153Z,57.62
2019-02-07T03:46:02.310Z,75.10
2019-02-07T03:47:01.354Z,70.47
2019-02-07T03:48:05.118Z,64.50
2019-02-07T03:48:55.164Z,61.53
2019-02-07T03:49:48.240Z,58.48
2019-02-07T03:50:41.588Z,62.23
2019-02-07T03:51:38.746Z,61.85
2019-02-07T03:52:34.240Z,55.70
2019-02-07T03:53:28.710Z,60.60
2019-02-07T03:54:26.151Z,59.38
2019-02-07T03:55:13.064Z,60.55
2019-02-07T03:56:06.088Z,61.73
2019-02-07T03:57:02.015Z,56.65
2019-02-07T03:57:56.689Z,55.90
2019-02-07T03:58:51.373Z,54.40
2019-02-07T03:59:51.893Z,51.30
2019-02-07T04:00:49.129Z,50.58
2019-02-07T04:01:43.609Z,51.28
2019-02-07T04:02:40.567Z,50.08
2019-02-07T04:03:40.140Z,48.83
2019-02-07T04:04:34.019Z,47.90
2019-02-07T04:05:26.803Z,52.55
2019-02-07T04:06:19.879Z,50.55
2019-02-07T04:07:13.030Z,49.48
2019-02-07T04:08:10.484Z,50.33
2019-02-07T04:09:02.033Z,50.35
2019-02-07T04:09:47.963Z,49.85
2019-02-07T04:10:43.266Z,50.78
2019-02-07T04:11:38.240Z,52.60
2019-02-07T04:12:31.902Z,48.50
2019-02-07T04:13:26.169Z,48.23
2019-02-07T04:14:16.663Z,51.75
2019-02-07T04:15:14.114Z,52.93
2019-02-07T04:16:14.717Z,60.73
2019-02-07T04:17:21.597Z,56.00
2019-02-07T04:18:08.184Z,66.17
2019-02-07T04:19:20.994Z,60.52
2019-02-07T04:20:08.443Z,59.95
2019-02-07T04:21:21.212Z,68.70
2019-02-07T04:22:24.902Z,60.15
2019-02-07T04:23:17.848Z,62.08
2019-02-07T04:24:10.992Z,60.08
2019-02-07T04:25:04.347Z,70.25
2019-02-07T04:26:01.382Z,71.22
2019-02-07T04:27:10.909Z,82.35
2019-02-07T04:27:57.923Z,84.47
2019-02-07T04:28:58.430Z,90.75
2019-02-07T04:29:46.457Z,88.75
2019-02-07T04:30:43.690Z,87.12
2019-02-07T04:31:36.884Z,88.58
2019-02-07T04:32:29.882Z,92.85
2019-02-07T04:33:33.779Z,91.25
2019-02-07T04:34:40.443Z,88.10
2019-02-07T04:35:35.514Z,77.92
2019-02-07T04:36:30.014Z,80.65
2019-02-07T04:37:18.042Z,80.55
2019-02-07T04:38:21.423Z,86.60
2019-02-07T04:39:14.365Z,86.87
2019-02-07T04:40:12.425Z,84.85
2019-02-07T04:41:10.532Z,80.67
2019-02-07T04:42:03.847Z,78.07
2019-02-07T04:42:58.312Z,77.78
2019-02-07T04:44:01.814Z,74.17
2019-02-07T04:45:03.141Z,72.17
2019-02-07T04:45:57.732Z,73.47
2019-02-07T04:46:49.971Z,71.20
2019-02-07T04:48:39.941Z,69.62
2019-02-07T04:49:49.450Z,68.67
2019-02-07T04:50:49.577Z,69.35
2019-02-07T04:51:53.150Z,68.25
2019-02-07T04:52:53.471Z,63.60
2019-02-07T04:53:43.971Z,63.73
2019-02-07T04:54:40.603Z,67.40
2019-02-07T04:55:41.507Z,64.15
2019-02-07T04:56:40.084Z,66.28
2019-02-07T04:57:40.604Z,60.70
2019-02-07T04:58:40.705Z,63.30
2019-02-07T04:59:47.471Z,61.37
2019-02-07T05:00:54.238Z,62.75
2019-02-07T05:02:07.449Z,64.92
2019-02-07T05:03:04.997Z,61.30
2019-02-07T05:03:53.669Z,65.80
2019-02-07T05:04:40.745Z,66.50
2019-02-07T05:05:40.747Z,61.77
2019-02-07T05:06:35.237Z,62.30
2019-02-07T05:07:44.661Z,60.00
2019-02-07T05:08:57.671Z,58.98
2019-02-07T05:09:51.342Z,57.78
2019-02-07T05:10:45.906Z,56.65
2019-02-07T05:11:40.383Z,59.00
2019-02-07T05:12:48.375Z,60.10
2019-02-07T05:13:32.861Z,56.25
2019-02-07T05:14:23.340Z,60.35
2019-02-07T05:15:20.959Z,65.32
2019-02-07T05:16:13.889Z,66.37
2019-02-07T05:17:11.130Z,63.80
2019-02-07T05:18:11.683Z,64.90
2019-02-07T05:19:12.814Z,64.53
2019-02-07T05:20:10.442Z,64.00
2019-02-07T05:21:10.750Z,64.65
2019-02-07T05:22:03.692Z,63.50
2019-02-07T05:23:16.702Z,66.05
2019-02-07T05:24:26.332Z,58.63
2019-02-07T05:25:23.512Z,56.77
2019-02-07T05:26:16.323Z,60.48
2019-02-07T05:27:29.225Z,61.75
2019-02-07T05:28:26.662Z,57.65
2019-02-07T05:29:23.396Z,60.85
2019-02-07T05:30:16.544Z,57.40
2019-02-07T05:31:11.014Z,57.58
2019-02-07T05:32:04.583Z,62.78
2019-02-07T05:32:51.166Z,58.87
2019-02-07T05:33:51.177Z,65.92
2019-02-07T05:35:00.609Z,60.38
2019-02-07T05:36:10.037Z,59.73
2019-02-07T05:37:12.189Z,59.73
2019-02-07T05:38:06.868Z,56.13
2019-02-07T05:38:56.019Z,61.98
2019-02-07T05:39:52.543Z,60.60
2019-02-07T05:40:43.849Z,60.48
2019-02-07T05:41:40.999Z,60.35
2019-02-07T05:42:35.459Z,60.70
2019-02-07T05:43:39.153Z,64.72
2019-02-07T05:44:37.431Z,61.37
2019-02-07T05:45:31.177Z,60.92
2019-02-07T05:46:28.955Z,60.48
2019-02-07T05:47:41.651Z,60.55
2019-02-07T05:48:39.184Z,61.10
2019-02-07T05:49:38.070Z,59.23
2019-02-07T05:50:35.733Z,62.08
2019-02-07T05:51:32.967Z,57.80
2019-02-07T05:52:26.011Z,59.70
2019-02-07T05:53:23.255Z,60.52
2019-02-07T05:54:20.485Z,58.45
2019-02-07T05:55:17.933Z,58.65
2019-02-07T05:56:21.425Z,59.10
2019-02-07T05:57:18.463Z,57.60
2019-02-07T05:58:25.050Z,58.92
2019-02-07T05:59:18.573Z,57.03
2019-02-07T06:00:11.822Z,62.93
2019-02-07T06:01:10.355Z,58.05
2019-02-07T06:02:10.917Z,58.50
2019-02-07T06:03:03.963Z,56.90
2019-02-07T06:03:55.264Z,57.80
2019-02-07T06:04:47.692Z,59.00
2019-02-07T06:05:40.943Z,55.43
2019-02-07T06:06:33.675Z,59.18
2019-02-07T06:07:31.422Z,59.63
2019-02-07T06:08:44.136Z,59.67
2019-02-07T06:09:39.031Z,58.40
2019-02-07T06:10:32.373Z,62.03
2019-02-07T06:11:25.421Z,57.65
2019-02-07T06:12:19.550Z,60.70
2019-02-07T06:13:12.529Z,62.48
2019-02-07T06:14:05.464Z,61.42
2019-02-07T06:15:15.094Z,61.88
2019-02-07T06:16:15.726Z,63.10
2019-02-07T06:17:10.206Z,57.95
2019-02-07T06:18:19.653Z,60.75
2019-02-07T06:19:17.063Z,58.10
2019-02-07T06:20:12.464Z,59.42
2019-02-07T06:21:15.957Z,59.90
2019-02-07T06:22:06.954Z,55.15
2019-02-07T06:23:07.271Z,61.83
2019-02-07T06:23:54.473Z,60.30
2019-02-07T06:24:47.614Z,63.52
2019-02-07T06:25:49.496Z,63.80
2019-02-07T06:26:42.522Z,62.40
2019-02-07T06:27:36.982Z,62.13
2019-02-07T06:28:34.337Z,62.95
2019-02-07T06:29:43.863Z,62.75
2019-02-07T06:30:38.341Z,62.80
2019-02-07T06:31:44.895Z,61.73
2019-02-07T06:32:30.806Z,61.98
2019-02-07T06:33:23.922Z,65.35
2019-02-07T06:34:30.584Z,63.30
2019-02-07T06:35:40.942Z,63.13
2019-02-07T06:36:34.179Z,64.00
2019-02-07T06:37:46.983Z,65.62
2019-02-07T06:38:36.764Z,66.42
2019-02-07T06:39:35.132Z,69.32
2019-02-07T06:40:45.574Z,67.12
2019-02-07T06:41:39.124Z,67.62
2019-02-07T06:42:27.227Z,71.10
2019-02-07T06:43:21.324Z,74.72
2019-02-07T06:44:06.956Z,75.37
2019-02-07T06:45:16.738Z,73.72
2019-02-07T06:46:14.822Z,74.03
2019-02-07T06:47:21.145Z,75.25
2019-02-07T06:48:14.191Z,72.25
2019-02-07T06:49:17.883Z,77.70
2019-02-07T06:50:06.733Z,81.08
2019-02-07T06:51:13.506Z,88.12
2019-02-07T06:51:55.983Z,86.02
2019-02-07T06:52:57.220Z,91.67
2019-02-07T06:53:51.806Z,95.35
2019-02-07T06:54:36.566Z,93.72
2019-02-07T06:55:28.573Z,102.87
2019-02-07T06:56:21.713Z,96.47
2019-02-07T06:57:25.300Z,94.37
2019-02-07T06:58:18.453Z,93.55
2019-02-07T06:59:11.803Z,146.00
2019-02-07T07:00:01.905Z,153.53
2019-02-07T07:01:03.432Z,159.32
2019-02-07T07:02:04.454Z,160.35
2019-02-07T07:03:01.817Z,137.80
2019-02-07T07:03:57.783Z,128.25
2019-02-07T07:05:02.837Z,127.20
2019-02-07T07:05:56.182Z,115.12
2019-02-07T07:06:49.221Z,116.97
2019-02-07T07:07:49.022Z,111.45
2019-02-07T07:08:42.994Z,110.85
2019-02-07T07:09:38.189Z,110.75
2019-02-07T07:10:45.669Z,109.63
2019-02-07T07:11:40.148Z,98.05
2019-02-07T07:12:33.719Z,98.90
2019-02-07T07:13:31.241Z,88.67
2019-02-07T07:14:18.806Z,89.72
2019-02-07T07:15:21.223Z,84.40
2019-02-07T07:16:14.474Z,78.52
2019-02-07T07:17:03.831Z,75.80
2019-02-07T07:18:10.709Z,76.00
2019-02-07T07:19:04.151Z,81.42
2019-02-07T07:19:56.881Z,80.53
2019-02-07T07:20:59.962Z,77.97
2019-02-07T07:21:54.841Z,82.00
2019-02-07T07:23:04.491Z,94.32
2019-02-07T07:24:11.062Z,89.10
2019-02-07T07:25:11.666Z,92.80
2019-02-07T07:26:09.533Z,89.65
2019-02-07T07:27:07.072Z,89.45
2019-02-07T07:28:04.621Z,87.92
2019-02-07T07:28:57.676Z,87.00
2019-02-07T07:29:45.897Z,88.82
2019-02-07T07:30:51.951Z,85.15
2019-02-07T07:31:49.603Z,84.87
2019-02-07T07:32:41.988Z,86.22
2019-02-07T07:33:39.575Z,83.62
2019-02-07T07:34:28.135Z,87.95
2019-02-07T07:35:21.254Z,86.02
2019-02-07T07:36:24.745Z,83.27
2019-02-07T07:37:22.494Z,85.72
2019-02-07T07:38:19.734Z,87.35
2019-02-07T07:39:12.984Z,76.55
2019-02-07T07:40:11.592Z,82.02
2019-02-07T07:40:58.455Z,83.30
2019-02-07T07:41:55.694Z,82.42
2019-02-07T07:42:49.057Z,82.17
2019-02-07T07:43:46.493Z,80.10
2019-02-07T07:44:36.986Z,79.25
2019-02-07T07:45:33.303Z,80.85
2019-02-07T07:46:27.784Z,77.80
2019-02-07T07:47:20.432Z,77.40
2019-02-07T07:48:14.063Z,78.67
2019-02-07T07:49:10.285Z,79.72
2019-02-07T07:50:09.787Z,80.87
2019-02-07T07:51:02.320Z,92.53
2019-02-07T07:51:55.770Z,86.60
2019-02-07T07:52:49.632Z,84.05
2019-02-07T07:54:02.639Z,81.32
2019-02-07T07:54:55.680Z,84.47
2019-02-07T07:55:54.802Z,82.85
2019-02-07T07:57:29.287Z,79.85
2019-02-07T07:58:30.013Z,78.12
2019-02-07T07:59:27.047Z,81.50
2019-02-07T08:00:24.900Z,78.07
2019-02-07T08:01:25.115Z,81.30
2019-02-07T08:02:19.516Z,81.25
2019-02-07T08:03:09.352Z,78.62
2019-02-07T08:04:01.896Z,78.30
2019-02-07T08:04:54.833Z,77.10
2019-02-07T08:05:50.623Z,77.55
2019-02-07T08:06:43.991Z,76.12
2019-02-07T08:07:28.166Z,76.45
2019-02-07T08:08:30.596Z,70.90
2019-02-07T08:09:44.316Z,67.17
2019-02-07T08:10:33.403Z,64.00
2019-02-07T08:11:26.918Z,65.90
2019-02-07T08:12:19.485Z,65.22
2019-02-07T08:13:16.527Z,66.33
2019-02-07T08:14:15.612Z,64.60
2019-02-07T08:15:25.207Z,68.70
2019-02-07T08:16:22.442Z,61.73
2019-02-07T08:17:22.963Z,62.48
2019-02-07T08:18:15.599Z,62.48
2019-02-07T08:19:19.389Z,63.25
2019-02-07T08:20:22.578Z,59.13
2019-02-07T08:21:20.227Z,59.93
2019-02-07T08:22:16.679Z,61.75
2019-02-07T08:23:04.192Z,59.18
2019-02-07T08:23:47.556Z,59.73
2019-02-07T08:24:40.731Z,62.50
2019-02-07T08:25:33.918Z,58.65
2019-02-07T08:26:37.489Z,59.53
2019-02-07T08:27:32.146Z,56.68
2019-02-07T08:28:41.770Z,55.10
2019-02-07T08:29:35.037Z,54.13
2019-02-07T08:30:21.858Z,55.92
2019-02-07T08:31:15.271Z,57.38
2019-02-07T08:32:08.319Z,55.75
2019-02-07T08:33:01.877Z,55.30
2019-02-07T08:34:05.362Z,57.15
2019-02-07T08:34:49.155Z,55.17
2019-02-07T08:35:47.664Z,55.52
2019-02-07T08:36:54.124Z,54.73
2019-02-07T08:37:58.121Z,56.08
2019-02-07T08:38:52.704Z,54.45
2019-02-07T08:39:45.946Z,58.25
2019-02-07T08:40:39.392Z,57.73
2019-02-07T08:41:42.884Z,58.80
2019-02-07T08:42:40.032Z,58.02
2019-02-07T08:43:33.171Z,60.60
2019-02-07T08:44:34.304Z,59.60
2019-02-07T08:45:36.043Z,62.60
2019-02-07T08:46:29.137Z,59.30
2019-02-07T08:47:42.747Z,58.85
2019-02-07T08:48:45.804Z,57.98
2019-02-07T08:49:46.324Z,56.02
2019-02-07T08:50:43.663Z,55.17
2019-02-07T08:51:38.344Z,51.98
2019-02-07T08:52:48.085Z,54.40
2019-02-07T08:53:40.515Z,52.85
2019-02-07T08:54:33.964Z,54.77
2019-02-07T08:55:28.552Z,55.30
2019-02-07T08:56:23.024Z,52.50
2019-02-07T08:57:17.104Z,49.45
2019-02-07T08:58:05.945Z,52.58
2019-02-07T08:59:09.724Z,51.98
2019-02-07T09:00:16.694Z,50.08
2019-02-07T09:01:11.441Z,53.90
2019-02-07T09:02:21.302Z,50.63
2019-02-07T09:03:27.664Z,48.00
2019-02-07T09:04:25.632Z,47.20
2019-02-07T09:05:19.803Z,47.48
2019-02-07T09:06:14.892Z,49.73
2019-02-07T09:07:12.123Z,49.53
2019-02-07T09:08:12.544Z,50.05
2019-02-07T09:09:00.784Z,47.62
2019-02-07T09:09:46.612Z,49.05
2019-02-07T09:10:41.444Z,49.15
2019-02-07T09:11:34.683Z,50.67
2019-02-07T09:12:24.145Z,53.13
2019-02-07T09:13:17.506Z,53.25
2019-02-07T09:14:11.864Z,49.45
2019-02-07T09:15:12.185Z,51.08
2019-02-07T09:16:01.764Z,47.38
2019-02-07T09:17:14.536Z,49.55
2019-02-07T09:18:09.837Z,47.60
2019-02-07T09:18:55.743Z,44.93
2019-02-07T09:19:53.264Z,46.10
2019-02-07T09:20:50.304Z,47.23
2019-02-07T09:21:43.343Z,46.18
2019-02-07T09:22:37.623Z,45.60
2019-02-07T09:23:37.824Z,46.73
2019-02-07T09:24:50.345Z,46.15
2019-02-07T09:26:01.665Z,45.67
2019-02-07T09:26:48.812Z,45.10
2019-02-07T09:27:43.300Z,40.55
2019-02-07T09:28:37.864Z,41.37
2019-02-07T09:29:28.963Z,45.05
2019-02-07T09:30:30.412Z,43.40
2019-02-07T09:31:23.764Z,45.25
2019-02-07T09:32:17.304Z,42.08
2019-02-07T09:33:15.164Z,45.75
2019-02-07T09:34:10.165Z,44.90
2019-02-07T09:34:54.183Z,41.92
2019-02-07T09:35:47.224Z,40.73
2019-02-07T09:36:40.284Z,40.20
2019-02-07T09:37:33.428Z,38.38
2019-02-07T09:38:30.564Z,37.35
2019-02-07T09:39:30.887Z,36.65
2019-02-07T09:40:32.727Z,36.70
2019-02-07T09:41:25.977Z,38.25
2019-02-07T09:42:29.884Z,38.90
2019-02-07T09:43:25.531Z,40.35
2019-02-07T09:44:22.155Z,40.08
2019-02-07T09:45:14.666Z,42.08
2019-02-07T09:46:18.851Z,41.00
2019-02-07T09:47:13.623Z,37.42
2019-02-07T09:48:21.140Z,39.88
2019-02-07T09:49:02.549Z,39.67
2019-02-07T09:49:56.348Z,40.08
2019-02-07T09:51:00.258Z,42.95
2019-02-07T09:51:57.518Z,40.33
2019-02-07T09:53:01.064Z,43.30
2019-02-07T09:53:51.958Z,40.70
2019-02-07T09:54:45.225Z,43.08
2019-02-07T09:55:38.758Z,42.67
2019-02-07T09:56:32.315Z,42.10
2019-02-07T09:57:26.087Z,42.30
2019-02-07T09:58:30.187Z,44.63
2019-02-07T09:59:34.288Z,46.18
2019-02-07T10:00:23.768Z,43.87
2019-02-07T10:01:22.044Z,45.50
2019-02-07T10:02:26.626Z,45.95
2019-02-07T10:03:19.969Z,46.85
2019-02-07T10:04:23.670Z,49.10
2019-02-07T10:05:08.325Z,50.55
2019-02-07T10:05:59.479Z,47.75
2019-02-07T10:06:56.866Z,50.73
2019-02-07T10:07:51.257Z,48.48
2019-02-07T10:09:03.938Z,52.35
2019-02-07T10:09:57.498Z,48.52
2019-02-07T10:10:51.059Z,48.00
2019-02-07T10:11:44.005Z,46.98
2019-02-07T10:12:48.118Z,46.63
2019-02-07T10:13:31.657Z,43.28
2019-02-07T10:14:38.394Z,45.85
2019-02-07T10:15:22.717Z,45.15
2019-02-07T10:16:12.526Z,46.63
2019-02-07T10:17:06.761Z,45.92
2019-02-07T10:18:07.352Z,45.60
2019-02-07T10:19:07.796Z,44.42
2019-02-07T10:20:02.383Z,44.98
2019-02-07T10:20:52.835Z,43.87
2019-02-07T10:21:53.277Z,42.55
2019-02-07T10:22:40.785Z,45.40
2019-02-07T10:23:53.827Z,41.35
2019-02-07T10:24:58.325Z,41.02
2019-02-07T10:25:51.973Z,39.70
2019-02-07T10:26:46.966Z,39.67
2019-02-07T10:27:41.545Z,36.33
2019-02-07T10:28:34.678Z,34.55
2019-02-07T10:29:28.018Z,32.08
2019-02-07T10:30:19.838Z,32.58